sensor_id;sensor_type;location;lat;lon;timestamp;P1;durP1;ratioP1;P2;durP2;ratioP2
6133;SDS011;3098;42.678;23.364;2023-05-20T00:01:20;18.48;;;9.77;;
6133;SDS011;3098;42.678;23.364;2023-05-20T00:03:47;23.42;;;10.23;;
6133;SDS011;3098;42.678;23.364;2023-05-20T00:06:14;23.92;;;9.48;;
6133;SDS011;3098;42.678;23.364;2023-05-20T00:08:41;19.73;;;10.45;;
6133;SDS011;3098;42.678;23.364;2023-05-20T00:11:09;19.95;;;8.48;;
6133;SDS011;3098;42.678;23.364;2023-05-20T00:13:37;24.73;;;9.07;;
6133;SDS011;3098;42.678;23.364;2023-05-20T00:16:04;20.17;;;9.25;;
6133;SDS011;3098;42.678;23.364;2023-05-20T00:18:32;16.45;;;9.40;;
6133;SDS011;3098;42.678;23.364;2023-05-20T00:20:59;21.40;;;9.70;;
6133;SDS011;3098;42.678;23.364;2023-05-20T00:23:25;23.45;;;9.60;;
6133;SDS011;3098;42.678;23.364;2023-05-20T00:25:53;21.40;;;10.30;;
6133;SDS011;3098;42.678;23.364;2023-05-20T00:28:21;20.20;;;9.13;;
6133;SDS011;3098;42.678;23.364;2023-05-20T00:30:48;25.58;;;9.63;;
6133;SDS011;3098;42.678;23.364;2023-05-20T00:33:15;18.10;;;9.07;;
6133;SDS011;3098;42.678;23.364;2023-05-20T00:35:42;20.17;;;9.23;;
6133;SDS011;3098;42.678;23.364;2023-05-20T00:38:09;18.45;;;9.65;;
6133;SDS011;3098;42.678;23.364;2023-05-20T00:40:36;20.73;;;9.63;;
6133;SDS011;3098;42.678;23.364;2023-05-20T00:43:03;20.35;;;9.90;;
6133;SDS011;3098;42.678;23.364;2023-05-20T00:45:31;22.35;;;9.68;;
6133;SDS011;3098;42.678;23.364;2023-05-20T00:47:59;22.35;;;9.95;;
6133;SDS011;3098;42.678;23.364;2023-05-20T00:50:28;22.15;;;9.77;;
6133;SDS011;3098;42.678;23.364;2023-05-20T00:52:55;23.85;;;10.60;;
6133;SDS011;3098;42.678;23.364;2023-05-20T00:55:23;26.48;;;11.40;;
6133;SDS011;3098;42.678;23.364;2023-05-20T00:57:51;17.25;;;9.23;;
6133;SDS011;3098;42.678;23.364;2023-05-20T01:00:19;21.17;;;9.30;;
6133;SDS011;3098;42.678;23.364;2023-05-20T01:02:48;23.52;;;10.25;;
6133;SDS011;3098;42.678;23.364;2023-05-20T01:05:15;25.13;;;10.43;;
6133;SDS011;3098;42.678;23.364;2023-05-20T01:07:42;22.08;;;11.15;;
6133;SDS011;3098;42.678;23.364;2023-05-20T01:10:10;20.30;;;9.73;;
6133;SDS011;3098;42.678;23.364;2023-05-20T01:12:38;21.50;;;10.20;;
6133;SDS011;3098;42.678;23.364;2023-05-20T01:15:07;21.73;;;10.77;;
6133;SDS011;3098;42.678;23.364;2023-05-20T01:17:37;21.73;;;10.68;;
6133;SDS011;3098;42.678;23.364;2023-05-20T01:20:10;21.42;;;10.00;;
6133;SDS011;3098;42.678;23.364;2023-05-20T01:22:47;21.58;;;10.55;;
6133;SDS011;3098;42.678;23.364;2023-05-20T01:25:14;20.70;;;10.45;;
6133;SDS011;3098;42.678;23.364;2023-05-20T01:27:41;22.33;;;10.15;;
6133;SDS011;3098;42.678;23.364;2023-05-20T01:30:08;20.35;;;9.88;;
6133;SDS011;3098;42.678;23.364;2023-05-20T01:32:37;22.33;;;10.02;;
6133;SDS011;3098;42.678;23.364;2023-05-20T01:35:06;19.75;;;9.73;;
6133;SDS011;3098;42.678;23.364;2023-05-20T01:37:34;22.20;;;10.38;;
6133;SDS011;3098;42.678;23.364;2023-05-20T01:40:06;25.23;;;10.20;;
6133;SDS011;3098;42.678;23.364;2023-05-20T01:42:34;26.05;;;10.63;;
6133;SDS011;3098;42.678;23.364;2023-05-20T01:45:02;24.02;;;10.90;;
6133;SDS011;3098;42.678;23.364;2023-05-20T01:47:30;22.10;;;10.40;;
6133;SDS011;3098;42.678;23.364;2023-05-20T01:49:57;23.77;;;10.93;;
6133;SDS011;3098;42.678;23.364;2023-05-20T01:52:24;26.67;;;10.30;;
6133;SDS011;3098;42.678;23.364;2023-05-20T01:54:51;19.63;;;10.57;;
6133;SDS011;3098;42.678;23.364;2023-05-20T01:57:20;22.55;;;10.75;;
6133;SDS011;3098;42.678;23.364;2023-05-20T01:59:48;25.33;;;10.60;;
6133;SDS011;3098;42.678;23.364;2023-05-20T02:02:15;26.23;;;10.88;;
6133;SDS011;3098;42.678;23.364;2023-05-20T02:04:44;30.65;;;11.27;;
6133;SDS011;3098;42.678;23.364;2023-05-20T02:07:12;23.13;;;10.48;;
6133;SDS011;3098;42.678;23.364;2023-05-20T02:09:38;21.23;;;9.90;;
6133;SDS011;3098;42.678;23.364;2023-05-20T02:12:06;20.73;;;10.13;;
6133;SDS011;3098;42.678;23.364;2023-05-20T02:14:35;28.48;;;9.98;;
6133;SDS011;3098;42.678;23.364;2023-05-20T02:17:02;20.95;;;9.20;;
6133;SDS011;3098;42.678;23.364;2023-05-20T02:19:30;22.70;;;9.20;;
6133;SDS011;3098;42.678;23.364;2023-05-20T02:21:57;20.02;;;9.68;;
6133;SDS011;3098;42.678;23.364;2023-05-20T02:24:24;21.20;;;10.07;;
6133;SDS011;3098;42.678;23.364;2023-05-20T02:26:51;22.20;;;10.10;;
6133;SDS011;3098;42.678;23.364;2023-05-20T02:29:19;26.00;;;10.00;;
6133;SDS011;3098;42.678;23.364;2023-05-20T02:31:48;21.10;;;9.98;;
6133;SDS011;3098;42.678;23.364;2023-05-20T02:34:16;19.85;;;9.60;;
6133;SDS011;3098;42.678;23.364;2023-05-20T02:36:43;17.05;;;9.63;;
6133;SDS011;3098;42.678;23.364;2023-05-20T02:39:09;25.83;;;10.00;;
6133;SDS011;3098;42.678;23.364;2023-05-20T02:41:36;22.60;;;9.32;;
6133;SDS011;3098;42.678;23.364;2023-05-20T02:44:03;22.15;;;10.88;;
6133;SDS011;3098;42.678;23.364;2023-05-20T02:46:31;23.75;;;10.50;;
6133;SDS011;3098;42.678;23.364;2023-05-20T02:49:00;21.52;;;10.00;;
6133;SDS011;3098;42.678;23.364;2023-05-20T02:51:28;25.70;;;9.70;;
6133;SDS011;3098;42.678;23.364;2023-05-20T02:53:56;16.90;;;9.45;;
6133;SDS011;3098;42.678;23.364;2023-05-20T02:56:23;21.25;;;8.70;;
6133;SDS011;3098;42.678;23.364;2023-05-20T02:58:51;21.55;;;9.30;;
6133;SDS011;3098;42.678;23.364;2023-05-20T03:01:18;18.77;;;8.80;;
6133;SDS011;3098;42.678;23.364;2023-05-20T03:03:44;19.83;;;9.75;;
6133;SDS011;3098;42.678;23.364;2023-05-20T03:06:13;19.38;;;9.43;;
6133;SDS011;3098;42.678;23.364;2023-05-20T03:08:40;16.55;;;8.45;;
6133;SDS011;3098;42.678;23.364;2023-05-20T03:11:07;19.38;;;9.77;;
6133;SDS011;3098;42.678;23.364;2023-05-20T03:13:34;21.65;;;9.32;;
6133;SDS011;3098;42.678;23.364;2023-05-20T03:16:00;18.65;;;9.32;;
6133;SDS011;3098;42.678;23.364;2023-05-20T03:18:27;26.02;;;10.27;;
6133;SDS011;3098;42.678;23.364;2023-05-20T03:20:54;21.30;;;9.60;;
6133;SDS011;3098;42.678;23.364;2023-05-20T03:23:23;19.77;;;10.40;;
6133;SDS011;3098;42.678;23.364;2023-05-20T03:25:50;19.20;;;9.77;;
6133;SDS011;3098;42.678;23.364;2023-05-20T03:28:17;24.08;;;10.13;;
6133;SDS011;3098;42.678;23.364;2023-05-20T03:30:43;17.92;;;9.68;;
6133;SDS011;3098;42.678;23.364;2023-05-20T03:33:10;21.67;;;10.43;;
6133;SDS011;3098;42.678;23.364;2023-05-20T03:35:38;23.10;;;10.57;;
6133;SDS011;3098;42.678;23.364;2023-05-20T03:38:06;18.95;;;9.20;;
6133;SDS011;3098;42.678;23.364;2023-05-20T03:40:34;26.55;;;10.88;;
6133;SDS011;3098;42.678;23.364;2023-05-20T03:43:01;17.58;;;9.10;;
6133;SDS011;3098;42.678;23.364;2023-05-20T03:45:28;17.25;;;8.38;;
6133;SDS011;3098;42.678;23.364;2023-05-20T03:47:55;13.63;;;8.25;;
6133;SDS011;3098;42.678;23.364;2023-05-20T03:50:23;17.23;;;9.02;;
6133;SDS011;3098;42.678;23.364;2023-05-20T03:52:50;17.27;;;7.68;;
6133;SDS011;3098;42.678;23.364;2023-05-20T03:55:17;16.08;;;8.88;;
6133;SDS011;3098;42.678;23.364;2023-05-20T03:57:45;17.02;;;8.48;;
6133;SDS011;3098;42.678;23.364;2023-05-20T04:00:13;16.63;;;8.18;;
6133;SDS011;3098;42.678;23.364;2023-05-20T04:02:41;19.92;;;8.60;;
6133;SDS011;3098;42.678;23.364;2023-05-20T04:05:07;19.20;;;8.77;;
6133;SDS011;3098;42.678;23.364;2023-05-20T04:07:34;19.92;;;8.60;;
6133;SDS011;3098;42.678;23.364;2023-05-20T04:10:02;24.23;;;8.68;;
6133;SDS011;3098;42.678;23.364;2023-05-20T04:12:29;16.38;;;8.23;;
6133;SDS011;3098;42.678;23.364;2023-05-20T04:14:58;16.25;;;8.63;;
6133;SDS011;3098;42.678;23.364;2023-05-20T04:17:26;17.98;;;8.60;;
6133;SDS011;3098;42.678;23.364;2023-05-20T04:19:55;18.13;;;8.70;;
6133;SDS011;3098;42.678;23.364;2023-05-20T04:22:23;19.55;;;7.40;;
6133;SDS011;3098;42.678;23.364;2023-05-20T04:24:50;13.05;;;7.13;;
6133;SDS011;3098;42.678;23.364;2023-05-20T04:27:18;16.27;;;6.28;;
6133;SDS011;3098;42.678;23.364;2023-05-20T04:29:45;15.45;;;7.05;;
6133;SDS011;3098;42.678;23.364;2023-05-20T04:32:15;11.50;;;5.13;;
6133;SDS011;3098;42.678;23.364;2023-05-20T04:34:43;11.50;;;5.68;;
6133;SDS011;3098;42.678;23.364;2023-05-20T04:37:12;11.32;;;6.40;;
6133;SDS011;3098;42.678;23.364;2023-05-20T04:39:39;14.43;;;5.22;;
6133;SDS011;3098;42.678;23.364;2023-05-20T04:42:07;9.45;;;5.50;;
6133;SDS011;3098;42.678;23.364;2023-05-20T04:44:34;12.10;;;5.28;;
6133;SDS011;3098;42.678;23.364;2023-05-20T04:47:02;9.40;;;5.07;;
6133;SDS011;3098;42.678;23.364;2023-05-20T04:49:33;8.35;;;4.30;;
6133;SDS011;3098;42.678;23.364;2023-05-20T04:52:00;9.18;;;4.85;;
6133;SDS011;3098;42.678;23.364;2023-05-20T04:54:28;8.15;;;4.13;;
6133;SDS011;3098;42.678;23.364;2023-05-20T04:56:56;8.80;;;5.05;;
6133;SDS011;3098;42.678;23.364;2023-05-20T04:59:23;7.47;;;4.43;;
6133;SDS011;3098;42.678;23.364;2023-05-20T05:01:50;8.15;;;4.63;;
6133;SDS011;3098;42.678;23.364;2023-05-20T05:04:17;7.60;;;4.40;;
6133;SDS011;3098;42.678;23.364;2023-05-20T05:06:47;7.03;;;4.68;;
6133;SDS011;3098;42.678;23.364;2023-05-20T05:09:14;10.15;;;5.55;;
6133;SDS011;3098;42.678;23.364;2023-05-20T05:11:41;10.10;;;5.47;;
6133;SDS011;3098;42.678;23.364;2023-05-20T05:14:08;12.88;;;5.55;;
6133;SDS011;3098;42.678;23.364;2023-05-20T05:16:35;11.23;;;5.43;;
6133;SDS011;3098;42.678;23.364;2023-05-20T05:19:02;10.07;;;4.82;;
6133;SDS011;3098;42.678;23.364;2023-05-20T05:21:29;10.05;;;4.82;;
6133;SDS011;3098;42.678;23.364;2023-05-20T05:23:58;8.80;;;4.60;;
6133;SDS011;3098;42.678;23.364;2023-05-20T05:26:25;7.32;;;4.47;;
6133;SDS011;3098;42.678;23.364;2023-05-20T05:28:52;8.73;;;4.55;;
6133;SDS011;3098;42.678;23.364;2023-05-20T05:31:20;7.47;;;4.68;;
6133;SDS011;3098;42.678;23.364;2023-05-20T05:33:47;7.15;;;4.72;;
6133;SDS011;3098;42.678;23.364;2023-05-20T05:36:14;10.10;;;5.22;;
6133;SDS011;3098;42.678;23.364;2023-05-20T05:38:41;7.80;;;4.80;;
6133;SDS011;3098;42.678;23.364;2023-05-20T05:41:10;11.05;;;5.45;;
6133;SDS011;3098;42.678;23.364;2023-05-20T05:43:37;11.38;;;5.13;;
6133;SDS011;3098;42.678;23.364;2023-05-20T05:46:04;7.80;;;4.90;;
6133;SDS011;3098;42.678;23.364;2023-05-20T05:48:31;11.68;;;6.20;;
6133;SDS011;3098;42.678;23.364;2023-05-20T05:50:58;12.18;;;5.75;;
6133;SDS011;3098;42.678;23.364;2023-05-20T05:53:25;13.27;;;6.20;;
6133;SDS011;3098;42.678;23.364;2023-05-20T05:55:53;10.55;;;5.68;;
6133;SDS011;3098;42.678;23.364;2023-05-20T05:58:21;8.30;;;5.10;;
6133;SDS011;3098;42.678;23.364;2023-05-20T06:00:49;9.00;;;5.57;;
6133;SDS011;3098;42.678;23.364;2023-05-20T06:03:17;10.50;;;5.97;;
6133;SDS011;3098;42.678;23.364;2023-05-20T06:05:44;8.45;;;4.70;;
6133;SDS011;3098;42.678;23.364;2023-05-20T06:08:11;9.30;;;5.68;;
6133;SDS011;3098;42.678;23.364;2023-05-20T06:10:38;16.52;;;5.78;;
6133;SDS011;3098;42.678;23.364;2023-05-20T06:13:06;12.02;;;6.03;;
6133;SDS011;3098;42.678;23.364;2023-05-20T06:15:34;9.90;;;5.88;;
6133;SDS011;3098;42.678;23.364;2023-05-20T06:18:01;9.93;;;4.93;;
6133;SDS011;3098;42.678;23.364;2023-05-20T06:20:28;11.05;;;5.60;;
6133;SDS011;3098;42.678;23.364;2023-05-20T06:22:55;10.70;;;6.05;;
6133;SDS011;3098;42.678;23.364;2023-05-20T06:25:22;10.10;;;5.60;;
6133;SDS011;3098;42.678;23.364;2023-05-20T06:27:49;8.10;;;5.47;;
6133;SDS011;3098;42.678;23.364;2023-05-20T06:30:17;8.60;;;5.35;;
6133;SDS011;3098;42.678;23.364;2023-05-20T06:32:46;11.13;;;5.97;;
6133;SDS011;3098;42.678;23.364;2023-05-20T06:35:13;9.52;;;5.63;;
6133;SDS011;3098;42.678;23.364;2023-05-20T06:37:40;10.45;;;5.05;;
6133;SDS011;3098;42.678;23.364;2023-05-20T06:40:07;10.60;;;5.53;;
6133;SDS011;3098;42.678;23.364;2023-05-20T06:42:35;8.75;;;5.10;;
6133;SDS011;3098;42.678;23.364;2023-05-20T06:45:02;9.95;;;5.25;;
6133;SDS011;3098;42.678;23.364;2023-05-20T06:47:29;15.38;;;5.10;;
6133;SDS011;3098;42.678;23.364;2023-05-20T06:49:57;11.40;;;5.45;;
6133;SDS011;3098;42.678;23.364;2023-05-20T06:52:24;11.02;;;5.53;;
6133;SDS011;3098;42.678;23.364;2023-05-20T06:54:52;8.82;;;5.13;;
6133;SDS011;3098;42.678;23.364;2023-05-20T06:57:18;7.45;;;5.10;;
6133;SDS011;3098;42.678;23.364;2023-05-20T06:59:46;7.70;;;5.20;;
6133;SDS011;3098;42.678;23.364;2023-05-20T07:02:13;8.38;;;5.65;;
6133;SDS011;3098;42.678;23.364;2023-05-20T07:04:40;8.10;;;4.78;;
6133;SDS011;3098;42.678;23.364;2023-05-20T07:07:10;30.88;;;17.23;;
6133;SDS011;3098;42.678;23.364;2023-05-20T07:09:38;9.82;;;5.82;;
6133;SDS011;3098;42.678;23.364;2023-05-20T07:12:06;11.85;;;6.95;;
6133;SDS011;3098;42.678;23.364;2023-05-20T07:14:33;16.73;;;8.02;;
6133;SDS011;3098;42.678;23.364;2023-05-20T07:17:00;18.25;;;7.70;;
6133;SDS011;3098;42.678;23.364;2023-05-20T07:19:27;12.10;;;6.78;;
6133;SDS011;3098;42.678;23.364;2023-05-20T07:21:54;11.65;;;5.85;;
6133;SDS011;3098;42.678;23.364;2023-05-20T07:24:25;12.80;;;5.75;;
6133;SDS011;3098;42.678;23.364;2023-05-20T07:26:52;11.35;;;4.95;;
6133;SDS011;3098;42.678;23.364;2023-05-20T07:29:18;9.02;;;5.60;;
6133;SDS011;3098;42.678;23.364;2023-05-20T07:31:45;8.30;;;5.93;;
6133;SDS011;3098;42.678;23.364;2023-05-20T07:34:12;7.47;;;4.47;;
6133;SDS011;3098;42.678;23.364;2023-05-20T07:36:39;10.93;;;5.30;;
6133;SDS011;3098;42.678;23.364;2023-05-20T07:39:07;8.02;;;5.00;;
6133;SDS011;3098;42.678;23.364;2023-05-20T07:41:36;11.27;;;6.15;;
6133;SDS011;3098;42.678;23.364;2023-05-20T07:44:03;9.20;;;5.40;;
6133;SDS011;3098;42.678;23.364;2023-05-20T07:46:33;10.38;;;5.82;;
6133;SDS011;3098;42.678;23.364;2023-05-20T07:49:00;13.98;;;5.50;;
6133;SDS011;3098;42.678;23.364;2023-05-20T07:51:28;8.25;;;5.82;;
6133;SDS011;3098;42.678;23.364;2023-05-20T07:53:55;12.23;;;8.68;;
6133;SDS011;3098;42.678;23.364;2023-05-20T07:56:22;9.90;;;4.85;;
6133;SDS011;3098;42.678;23.364;2023-05-20T07:58:54;7.28;;;4.60;;
6133;SDS011;3098;42.678;23.364;2023-05-20T08:01:23;10.05;;;5.13;;
6133;SDS011;3098;42.678;23.364;2023-05-20T08:03:51;7.90;;;5.07;;
6133;SDS011;3098;42.678;23.364;2023-05-20T08:06:18;8.52;;;4.95;;
6133;SDS011;3098;42.678;23.364;2023-05-20T08:08:46;8.85;;;5.72;;
6133;SDS011;3098;42.678;23.364;2023-05-20T08:11:13;8.40;;;5.20;;
6133;SDS011;3098;42.678;23.364;2023-05-20T08:13:40;8.68;;;5.10;;
6133;SDS011;3098;42.678;23.364;2023-05-20T08:16:08;8.65;;;5.45;;
6133;SDS011;3098;42.678;23.364;2023-05-20T08:18:35;11.50;;;4.95;;
6133;SDS011;3098;42.678;23.364;2023-05-20T08:21:03;9.32;;;5.32;;
6133;SDS011;3098;42.678;23.364;2023-05-20T08:23:32;10.63;;;4.95;;
6133;SDS011;3098;42.678;23.364;2023-05-20T08:26:00;14.30;;;5.57;;
6133;SDS011;3098;42.678;23.364;2023-05-20T08:28:27;9.05;;;5.53;;
6133;SDS011;3098;42.678;23.364;2023-05-20T08:30:55;9.45;;;5.43;;
6133;SDS011;3098;42.678;23.364;2023-05-20T08:33:25;6.68;;;4.75;;
6133;SDS011;3098;42.678;23.364;2023-05-20T08:35:52;7.25;;;4.97;;
6133;SDS011;3098;42.678;23.364;2023-05-20T08:38:19;7.60;;;4.70;;
6133;SDS011;3098;42.678;23.364;2023-05-20T08:40:50;7.25;;;4.38;;
6133;SDS011;3098;42.678;23.364;2023-05-20T08:43:17;8.93;;;5.18;;
6133;SDS011;3098;42.678;23.364;2023-05-20T08:45:46;6.70;;;4.75;;
6133;SDS011;3098;42.678;23.364;2023-05-20T08:48:13;6.50;;;4.57;;
6133;SDS011;3098;42.678;23.364;2023-05-20T08:50:44;8.75;;;4.35;;
6133;SDS011;3098;42.678;23.364;2023-05-20T08:53:16;6.72;;;4.38;;
6133;SDS011;3098;42.678;23.364;2023-05-20T08:55:45;7.90;;;5.50;;
6133;SDS011;3098;42.678;23.364;2023-05-20T08:58:18;8.93;;;5.13;;
6133;SDS011;3098;42.678;23.364;2023-05-20T09:00:45;7.05;;;4.43;;
6133;SDS011;3098;42.678;23.364;2023-05-20T09:03:13;7.40;;;4.82;;
6133;SDS011;3098;42.678;23.364;2023-05-20T09:05:40;7.30;;;4.55;;
6133;SDS011;3098;42.678;23.364;2023-05-20T09:08:09;14.45;;;4.78;;
6133;SDS011;3098;42.678;23.364;2023-05-20T09:10:38;6.05;;;4.40;;
6133;SDS011;3098;42.678;23.364;2023-05-20T09:13:07;9.30;;;4.80;;
6133;SDS011;3098;42.678;23.364;2023-05-20T09:15:35;7.63;;;4.65;;
6133;SDS011;3098;42.678;23.364;2023-05-20T09:18:04;7.40;;;4.40;;
6133;SDS011;3098;42.678;23.364;2023-05-20T09:20:33;11.48;;;5.28;;
6133;SDS011;3098;42.678;23.364;2023-05-20T09:23:03;9.25;;;5.13;;
6133;SDS011;3098;42.678;23.364;2023-05-20T09:25:34;10.60;;;5.07;;
6133;SDS011;3098;42.678;23.364;2023-05-20T09:28:03;7.18;;;4.75;;
6133;SDS011;3098;42.678;23.364;2023-05-20T09:30:31;8.75;;;4.97;;
6133;SDS011;3098;42.678;23.364;2023-05-20T09:32:59;9.20;;;4.95;;
6133;SDS011;3098;42.678;23.364;2023-05-20T09:35:27;8.02;;;5.22;;
6133;SDS011;3098;42.678;23.364;2023-05-20T09:37:54;12.80;;;5.55;;
6133;SDS011;3098;42.678;23.364;2023-05-20T09:40:23;8.90;;;4.78;;
6133;SDS011;3098;42.678;23.364;2023-05-20T09:42:53;11.23;;;5.20;;
6133;SDS011;3098;42.678;23.364;2023-05-20T09:45:23;12.88;;;5.20;;
6133;SDS011;3098;42.678;23.364;2023-05-20T09:47:51;10.00;;;5.10;;
6133;SDS011;3098;42.678;23.364;2023-05-20T09:50:20;8.15;;;4.85;;
6133;SDS011;3098;42.678;23.364;2023-05-20T09:52:49;10.60;;;5.20;;
6133;SDS011;3098;42.678;23.364;2023-05-20T09:55:16;7.30;;;4.93;;
6133;SDS011;3098;42.678;23.364;2023-05-20T09:57:45;7.57;;;4.75;;
6133;SDS011;3098;42.678;23.364;2023-05-20T10:00:14;14.35;;;5.00;;
6133;SDS011;3098;42.678;23.364;2023-05-20T10:02:43;10.88;;;5.55;;
6133;SDS011;3098;42.678;23.364;2023-05-20T10:05:18;9.70;;;4.57;;
6133;SDS011;3098;42.678;23.364;2023-05-20T10:07:52;10.88;;;5.32;;
6133;SDS011;3098;42.678;23.364;2023-05-20T10:10:41;6.40;;;4.20;;
6133;SDS011;3098;42.678;23.364;2023-05-20T10:13:17;9.15;;;5.10;;
6133;SDS011;3098;42.678;23.364;2023-05-20T10:15:58;9.10;;;4.60;;
6133;SDS011;3098;42.678;23.364;2023-05-20T10:18:35;6.65;;;4.82;;
6133;SDS011;3098;42.678;23.364;2023-05-20T10:21:15;8.68;;;4.82;;
6133;SDS011;3098;42.678;23.364;2023-05-20T10:23:46;6.30;;;3.80;;
6133;SDS011;3098;42.678;23.364;2023-05-20T10:26:13;4.78;;;3.58;;
6133;SDS011;3098;42.678;23.364;2023-05-20T10:28:40;6.18;;;3.80;;
6133;SDS011;3098;42.678;23.364;2023-05-20T10:31:15;8.18;;;3.58;;
6133;SDS011;3098;42.678;23.364;2023-05-20T10:33:44;6.90;;;4.00;;
6133;SDS011;3098;42.678;23.364;2023-05-20T10:36:21;9.82;;;3.78;;
6133;SDS011;3098;42.678;23.364;2023-05-20T10:38:51;6.95;;;3.60;;
6133;SDS011;3098;42.678;23.364;2023-05-20T10:41:19;6.65;;;3.60;;
6133;SDS011;3098;42.678;23.364;2023-05-20T10:43:47;6.47;;;3.92;;
6133;SDS011;3098;42.678;23.364;2023-05-20T10:46:27;6.05;;;4.00;;
6133;SDS011;3098;42.678;23.364;2023-05-20T10:48:54;11.63;;;4.10;;
6133;SDS011;3098;42.678;23.364;2023-05-20T10:51:22;12.32;;;4.32;;
6133;SDS011;3098;42.678;23.364;2023-05-20T10:53:51;5.72;;;4.15;;
6133;SDS011;3098;42.678;23.364;2023-05-20T10:56:19;5.95;;;4.10;;
6133;SDS011;3098;42.678;23.364;2023-05-20T10:58:48;5.25;;;3.72;;
6133;SDS011;3098;42.678;23.364;2023-05-20T11:01:16;5.22;;;3.60;;
6133;SDS011;3098;42.678;23.364;2023-05-20T11:03:45;6.13;;;3.70;;
6133;SDS011;3098;42.678;23.364;2023-05-20T11:06:13;8.68;;;3.88;;
6133;SDS011;3098;42.678;23.364;2023-05-20T11:08:42;7.40;;;4.13;;
6133;SDS011;3098;42.678;23.364;2023-05-20T11:11:10;11.80;;;4.35;;
6133;SDS011;3098;42.678;23.364;2023-05-20T11:13:37;7.18;;;4.40;;
6133;SDS011;3098;42.678;23.364;2023-05-20T11:16:04;12.60;;;4.35;;
6133;SDS011;3098;42.678;23.364;2023-05-20T11:18:32;6.05;;;3.88;;
6133;SDS011;3098;42.678;23.364;2023-05-20T11:21:01;8.27;;;4.10;;
6133;SDS011;3098;42.678;23.364;2023-05-20T11:23:28;10.80;;;4.60;;
6133;SDS011;3098;42.678;23.364;2023-05-20T11:25:56;7.25;;;4.72;;
6133;SDS011;3098;42.678;23.364;2023-05-20T11:28:23;9.55;;;4.18;;
6133;SDS011;3098;42.678;23.364;2023-05-20T11:30:51;7.63;;;4.53;;
6133;SDS011;3098;42.678;23.364;2023-05-20T11:33:19;7.55;;;3.83;;
6133;SDS011;3098;42.678;23.364;2023-05-20T11:35:47;5.97;;;4.00;;
6133;SDS011;3098;42.678;23.364;2023-05-20T11:38:16;8.32;;;4.50;;
6133;SDS011;3098;42.678;23.364;2023-05-20T11:40:45;6.05;;;4.00;;
6133;SDS011;3098;42.678;23.364;2023-05-20T11:43:13;8.10;;;4.43;;
6133;SDS011;3098;42.678;23.364;2023-05-20T11:45:41;7.53;;;4.50;;
6133;SDS011;3098;42.678;23.364;2023-05-20T11:48:09;7.28;;;4.15;;
6133;SDS011;3098;42.678;23.364;2023-05-20T11:50:41;10.65;;;4.78;;
6133;SDS011;3098;42.678;23.364;2023-05-20T11:53:13;6.53;;;4.70;;
6133;SDS011;3098;42.678;23.364;2023-05-20T11:55:46;6.65;;;4.18;;
6133;SDS011;3098;42.678;23.364;2023-05-20T11:58:15;7.00;;;4.03;;
6133;SDS011;3098;42.678;23.364;2023-05-20T12:00:44;6.93;;;4.35;;
6133;SDS011;3098;42.678;23.364;2023-05-20T12:03:13;12.68;;;4.57;;
6133;SDS011;3098;42.678;23.364;2023-05-20T12:05:41;6.97;;;4.18;;
6133;SDS011;3098;42.678;23.364;2023-05-20T12:08:09;8.68;;;4.70;;
6133;SDS011;3098;42.678;23.364;2023-05-20T12:10:36;8.05;;;4.60;;
6133;SDS011;3098;42.678;23.364;2023-05-20T12:13:04;8.50;;;4.32;;
6133;SDS011;3098;42.678;23.364;2023-05-20T12:15:33;11.63;;;4.55;;
6133;SDS011;3098;42.678;23.364;2023-05-20T12:18:01;11.05;;;4.95;;
6133;SDS011;3098;42.678;23.364;2023-05-20T12:20:28;7.70;;;4.55;;
6133;SDS011;3098;42.678;23.364;2023-05-20T12:22:58;7.05;;;4.10;;
6133;SDS011;3098;42.678;23.364;2023-05-20T12:25:25;57.95;;;25.45;;
6133;SDS011;3098;42.678;23.364;2023-05-20T12:27:53;9.55;;;5.22;;
6133;SDS011;3098;42.678;23.364;2023-05-20T12:30:22;7.40;;;4.47;;
6133;SDS011;3098;42.678;23.364;2023-05-20T12:32:49;6.45;;;3.92;;
6133;SDS011;3098;42.678;23.364;2023-05-20T12:35:23;8.07;;;3.15;;
6133;SDS011;3098;42.678;23.364;2023-05-20T12:37:52;6.93;;;3.17;;
6133;SDS011;3098;42.678;23.364;2023-05-20T12:40:20;6.40;;;2.75;;
6133;SDS011;3098;42.678;23.364;2023-05-20T12:42:48;3.58;;;2.05;;
6133;SDS011;3098;42.678;23.364;2023-05-20T12:45:16;3.33;;;2.10;;
6133;SDS011;3098;42.678;23.364;2023-05-20T12:47:44;3.78;;;2.47;;
6133;SDS011;3098;42.678;23.364;2023-05-20T12:50:12;6.82;;;2.65;;
6133;SDS011;3098;42.678;23.364;2023-05-20T12:52:40;4.72;;;3.15;;
6133;SDS011;3098;42.678;23.364;2023-05-20T12:55:07;5.72;;;2.85;;
6133;SDS011;3098;42.678;23.364;2023-05-20T12:57:38;5.32;;;3.08;;
6133;SDS011;3098;42.678;23.364;2023-05-20T13:00:06;5.20;;;2.70;;
6133;SDS011;3098;42.678;23.364;2023-05-20T13:02:34;7.40;;;3.45;;
6133;SDS011;3098;42.678;23.364;2023-05-20T13:05:04;5.97;;;3.40;;
6133;SDS011;3098;42.678;23.364;2023-05-20T13:07:31;6.45;;;3.72;;
6133;SDS011;3098;42.678;23.364;2023-05-20T13:09:59;5.63;;;3.67;;
6133;SDS011;3098;42.678;23.364;2023-05-20T13:12:26;6.05;;;3.20;;
6133;SDS011;3098;42.678;23.364;2023-05-20T13:14:54;10.60;;;3.60;;
6133;SDS011;3098;42.678;23.364;2023-05-20T13:17:21;5.85;;;3.28;;
6133;SDS011;3098;42.678;23.364;2023-05-20T13:19:48;6.20;;;3.72;;
6133;SDS011;3098;42.678;23.364;2023-05-20T13:22:17;5.40;;;3.63;;
6133;SDS011;3098;42.678;23.364;2023-05-20T13:24:44;5.13;;;3.38;;
6133;SDS011;3098;42.678;23.364;2023-05-20T13:27:11;7.38;;;3.70;;
6133;SDS011;3098;42.678;23.364;2023-05-20T13:29:38;7.43;;;3.38;;
6133;SDS011;3098;42.678;23.364;2023-05-20T13:32:07;5.07;;;3.40;;
6133;SDS011;3098;42.678;23.364;2023-05-20T13:34:34;4.95;;;3.50;;
6133;SDS011;3098;42.678;23.364;2023-05-20T13:37:01;7.07;;;3.90;;
6133;SDS011;3098;42.678;23.364;2023-05-20T13:39:30;7.03;;;3.33;;
6133;SDS011;3098;42.678;23.364;2023-05-20T13:41:57;5.53;;;3.65;;
6133;SDS011;3098;42.678;23.364;2023-05-20T13:44:24;5.53;;;3.90;;
6133;SDS011;3098;42.678;23.364;2023-05-20T13:46:51;7.53;;;4.20;;
6133;SDS011;3098;42.678;23.364;2023-05-20T13:49:17;8.68;;;3.95;;
6133;SDS011;3098;42.678;23.364;2023-05-20T13:51:45;8.13;;;3.92;;
6133;SDS011;3098;42.678;23.364;2023-05-20T13:54:12;5.32;;;3.42;;
6133;SDS011;3098;42.678;23.364;2023-05-20T13:56:40;6.38;;;3.72;;
6133;SDS011;3098;42.678;23.364;2023-05-20T13:59:07;7.18;;;3.90;;
6133;SDS011;3098;42.678;23.364;2023-05-20T14:01:34;8.98;;;3.80;;
6133;SDS011;3098;42.678;23.364;2023-05-20T14:04:01;5.88;;;3.80;;
6133;SDS011;3098;42.678;23.364;2023-05-20T14:06:28;6.28;;;3.53;;
6133;SDS011;3098;42.678;23.364;2023-05-20T14:08:56;5.97;;;3.67;;
6133;SDS011;3098;42.678;23.364;2023-05-20T14:11:23;11.10;;;5.20;;
6133;SDS011;3098;42.678;23.364;2023-05-20T14:13:53;6.45;;;4.35;;
6133;SDS011;3098;42.678;23.364;2023-05-20T14:16:20;8.00;;;4.07;;
6133;SDS011;3098;42.678;23.364;2023-05-20T14:18:47;8.93;;;3.88;;
6133;SDS011;3098;42.678;23.364;2023-05-20T14:21:14;9.98;;;4.10;;
6133;SDS011;3098;42.678;23.364;2023-05-20T14:23:41;7.72;;;3.80;;
6133;SDS011;3098;42.678;23.364;2023-05-20T14:26:09;7.88;;;4.15;;
6133;SDS011;3098;42.678;23.364;2023-05-20T14:28:36;7.00;;;4.10;;
6133;SDS011;3098;42.678;23.364;2023-05-20T14:31:04;8.13;;;4.07;;
6133;SDS011;3098;42.678;23.364;2023-05-20T14:33:32;6.70;;;4.25;;
6133;SDS011;3098;42.678;23.364;2023-05-20T14:35:58;8.07;;;3.97;;
6133;SDS011;3098;42.678;23.364;2023-05-20T14:38:27;7.30;;;4.07;;
6133;SDS011;3098;42.678;23.364;2023-05-20T14:40:54;7.68;;;4.55;;
6133;SDS011;3098;42.678;23.364;2023-05-20T14:43:22;6.50;;;4.18;;
6133;SDS011;3098;42.678;23.364;2023-05-20T14:45:49;8.10;;;4.50;;
6133;SDS011;3098;42.678;23.364;2023-05-20T14:48:17;6.88;;;4.40;;
6133;SDS011;3098;42.678;23.364;2023-05-20T14:50:44;9.35;;;4.85;;
6133;SDS011;3098;42.678;23.364;2023-05-20T14:53:11;9.95;;;5.22;;
6133;SDS011;3098;42.678;23.364;2023-05-20T14:55:38;7.63;;;4.88;;
6133;SDS011;3098;42.678;23.364;2023-05-20T14:58:05;7.50;;;4.53;;